Time;durP1;ratioP1;P1;durP2;ratioP2;P2;SDS_P1;SDS_P2;PMS_P1;PMS_P2;Temp;Humidity;BMP_temperature;BMP_pressure;BME280_temperature;BME280_humidity;BME280_pressure;Samples;Min_cycle;Max_cycle;Signal;HPM_P1;HPM_P2
2023/08/21 00:08:15;;;;;;;5.00;1.52;;;17.40;1.00;;;;;;20810610;28;20520;-43
2023/08/21 00:18:15;;;;;;;5.28;1.80;;;17.40;6.30;;;;;;20823469;28;20048;-44
2023/08/21 00:28:16;;;;;;;4.77;1.70;;;17.40;9.30;;;;;;20825123;28;20041;-44
2023/08/21 00:38:17;;;;;;;4.55;1.80;;;17.50;23.20;;;;;;20826035;28;20750;-43
2023/08/21 00:48:18;;;;;;;5.97;1.73;;;17.60;27.90;;;;;;20825769;28;20029;-44
2023/08/21 00:58:19;;;;;;;4.18;1.75;;;17.60;19.30;;;;;;20822478;28;20053;-44
2023/08/21 01:08:32;;;;;;;3.20;1.52;;;17.40;19.40;;;;;;20812907;28;20053;-44
2023/08/21 01:18:34;;;;;;;6.50;1.73;;;17.40;27.80;;;;;;20818233;28;20088;-43
2023/08/21 01:28:35;;;;;;;3.58;1.90;;;17.30;34.30;;;;;;20826395;28;20037;-44
2023/08/21 01:38:36;;;;;;;4.18;1.90;;;17.30;37.30;;;;;;20821701;28;20049;-44
2023/08/21 01:48:36;;;;;;;4.75;1.80;;;17.20;38.60;;;;;;20813753;28;20067;-44
2023/08/21 01:58:37;;;;;;;4.32;1.70;;;17.20;41.00;;;;;;20822197;28;20045;-44
2023/08/21 02:08:37;;;;;;;5.47;1.80;;;17.10;41.90;;;;;;20826712;28;21218;-44
2023/08/21 02:18:38;;;;;;;5.13;1.80;;;17.00;46.90;;;;;;20815685;28;20047;-44
2023/08/21 02:28:39;;;;;;;5.35;1.75;;;17.00;48.70;;;;;;20820967;28;20481;-44
2023/08/21 02:38:39;;;;;;;5.87;1.97;;;16.90;55.10;;;;;;20824402;28;20492;-44
2023/08/21 02:48:40;;;;;;;5.37;2.17;;;16.80;63.60;;;;;;20818229;28;20123;-44
2023/08/21 02:58:40;;;;;;;4.60;1.98;;;16.80;53.10;;;;;;20834759;28;21051;-43
2023/08/21 03:08:43;;;;;;;4.45;1.70;;;16.70;64.40;;;;;;20818449;28;20041;-43
2023/08/21 03:19:00;;;;;;;5.50;1.88;;;16.60;66.60;;;;;;20810822;28;20067;-43
2023/08/21 03:29:01;;;;;;;4.67;1.97;;;16.50;65.20;;;;;;20813809;28;20068;-43
2023/08/21 03:39:02;;;;;;;4.22;1.65;;;16.50;75.50;;;;;;20821179;28;20053;-44
2023/08/21 03:49:02;;;;;;;5.68;1.90;;;16.40;71.40;;;;;;20822959;28;20029;-43
2023/08/21 03:59:03;;;;;;;4.32;1.80;;;16.20;76.80;;;;;;20833575;28;20572;-44
2023/08/21 04:09:06;;;;;;;3.42;1.60;;;16.20;70.40;;;;;;20833857;28;20044;-43
2023/08/21 04:19:06;;;;;;;4.55;1.73;;;16.10;79.00;;;;;;20833909;28;20356;-43
2023/08/21 04:29:07;;;;;;;3.50;1.88;;;16.10;90.10;;;;;;20834329;28;20872;-43
2023/08/21 04:39:07;;;;;;;6.13;1.65;;;16.20;93.10;;;;;;20837349;28;20076;-44
2023/08/21 04:49:09;;;;;;;4.05;2.05;;;16.10;96.90;;;;;;20833604;28;20047;-43
2023/08/21 04:59:10;;;;;;;3.53;1.63;;;16.10;97.70;;;;;;20842747;28;20045;-43
2023/08/21 05:09:10;;;;;;;4.85;1.98;;;16.10;97.60;;;;;;20837445;28;20080;-44
2023/08/21 05:19:11;;;;;;;4.75;2.17;;;16.10;99.90;;;;;;20833286;28;20111;-43
2023/08/21 05:29:11;;;;;;;3.53;2.60;;;16.10;99.90;;;;;;20820752;28;20139;-43
2023/08/21 05:39:12;;;;;;;5.28;2.80;;;16.20;99.90;;;;;;20825626;28;20526;-43
2023/08/21 05:49:13;;;;;;;6.45;3.40;;;16.40;99.90;;;;;;20836770;28;20040;-43
2023/08/21 05:59:28;;;;;;;7.90;3.75;;;16.60;99.90;;;;;;20825528;28;20570;-44
2023/08/21 06:09:29;;;;;;;7.15;3.20;;;17.10;99.90;;;;;;20810910;28;20060;-43
2023/08/21 06:19:30;;;;;;;9.25;3.47;;;17.60;98.40;;;;;;20838192;28;20056;-44
2023/08/21 06:29:30;;;;;;;7.93;3.92;;;17.80;99.90;;;;;;20850145;28;20484;-44
2023/08/21 06:39:31;;;;;;;21.23;13.55;;;18.10;94.80;;;;;;20830017;28;20057;-44
2023/08/21 06:49:32;;;;;;;10.30;3.58;;;18.70;1.00;;;;;;20834150;28;21865;-44
2023/08/21 06:59:35;;;;;;;9.38;2.38;;;19.00;1.00;;;;;;20841545;28;20049;-44
2023/08/21 07:09:36;;;;;;;6.57;2.40;;;19.20;1.00;;;;;;20838523;28;20068;-44
2023/08/21 07:19:36;;;;;;;3.63;1.38;;;19.50;1.00;;;;;;20857936;28;20048;-44
2023/08/21 07:29:37;;;;;;;6.20;1.95;;;19.60;1.00;;;;;;20859342;28;20115;-44
2023/08/21 07:39:37;;;;;;;6.00;1.88;;;20.00;1.00;;;;;;20842309;28;20064;-44
2023/08/21 07:49:38;;;;;;;6.93;2.05;;;20.20;1.00;;;;;;20845342;28;20045;-43
2023/08/21 07:59:38;;;;;;;6.63;2.83;;;20.30;1.00;;;;;;20844677;28;20782;-43
2023/08/21 08:09:39;;;;;;;7.28;2.00;;;20.60;1.00;;;;;;20845159;28;20045;-44
2023/08/21 08:19:40;;;;;;;8.38;3.00;;;21.00;1.00;;;;;;20842066;28;20077;-44
2023/08/21 08:29:40;;;;;;;7.35;1.40;;;21.20;1.00;;;;;;20847486;28;20045;-43
2023/08/21 08:39:41;;;;;;;7.00;2.50;;;21.70;1.00;;;;;;20845187;28;20049;-44
2023/08/21 08:49:41;;;;;;;6.38;2.10;;;22.20;1.00;;;;;;20857409;28;20070;-44
2023/08/21 08:59:42;;;;;;;5.40;1.50;;;22.70;1.00;;;;;;20844917;28;20091;-44
2023/08/21 09:09:49;;;;;;;5.30;1.60;;;23.10;1.00;;;;;;20857739;28;20068;-44
2023/08/21 09:19:49;;;;;;;7.67;1.97;;;23.30;1.00;;;;;;20856322;28;20044;-45
2023/08/21 09:29:50;;;;;;;5.03;1.73;;;23.70;1.00;;;;;;20853204;28;20052;-45
2023/08/21 09:39:51;;;;;;;5.50;1.23;;;24.30;1.00;;;;;;20856867;28;20045;-44
2023/08/21 09:49:52;;;;;;;4.43;1.88;;;24.80;1.00;;;;;;20857688;28;20040;-45
2023/08/21 09:59:56;;;;;;;6.28;1.70;;;25.10;1.00;;;;;;20843945;28;20056;-44
2023/08/21 10:09:57;;;;;;;3.05;1.17;;;25.40;1.00;;;;;;20842929;28;20045;-45
2023/08/21 10:20:03;;;;;;;6.28;1.73;;;26.00;1.00;;;;;;20852269;28;20071;-44
2023/08/21 10:30:19;;;;;;;7.03;1.63;;;25.80;1.00;;;;;;20859012;28;20048;-44
2023/08/21 10:40:24;;;;;;;5.40;1.40;;;25.60;1.00;;;;;;20843523;28;20094;-44
2023/08/21 10:50:24;;;;;;;6.20;1.15;;;25.60;1.00;;;;;;20839541;28;20506;-44
2023/08/21 11:00:25;;;;;;;13.10;8.65;;;25.10;1.00;;;;;;20825636;28;20095;-44
2023/08/21 11:10:31;;;;;;;5.10;1.08;;;25.70;1.00;;;;;;20846251;28;20047;-44
2023/08/21 11:20:34;;;;;;;5.38;0.98;;;25.60;1.00;;;;;;20838448;28;20396;-44
2023/08/21 11:30:35;;;;;;;4.95;0.82;;;26.10;1.00;;;;;;20840271;28;20037;-44
2023/08/21 11:40:36;;;;;;;4.03;1.13;;;26.50;1.00;;;;;;20835460;28;20396;-44
2023/08/21 11:50:36;;;;;;;3.70;1.37;;;26.50;1.00;;;;;;20833227;28;20120;-45
2023/08/21 12:00:39;;;;;;;4.53;0.90;;;26.70;1.00;;;;;;20842197;28;20076;-45
2023/08/21 12:10:40;;;;;;;5.13;1.10;;;27.20;1.00;;;;;;20839058;28;20041;-44
2023/08/21 12:20:41;;;;;;;2.08;0.70;;;26.60;1.00;;;;;;20846107;28;20054;-44
2023/08/21 12:30:41;;;;;;;4.72;0.90;;;27.10;1.00;;;;;;20850451;28;20059;-44
2023/08/21 12:40:42;;;;;;;3.85;1.05;;;26.50;1.00;;;;;;20852353;28;20068;-44
2023/08/21 12:50:42;;;;;;;5.18;2.78;;;27.00;1.00;;;;;;20844609;28;20036;-45
2023/08/21 13:00:43;;;;;;;2.47;0.80;;;27.40;1.00;;;;;;20851803;28;20064;-44
2023/08/21 13:10:43;;;;;;;4.38;0.90;;;27.70;1.00;;;;;;20852958;28;20128;-45
2023/08/21 13:20:44;;;;;;;4.78;1.35;;;27.60;1.00;;;;;;20839682;28;20083;-45
2023/08/21 13:30:44;;;;;;;3.70;0.80;;;27.70;1.00;;;;;;20861057;28;20463;-45
2023/08/21 13:40:45;;;;;;;3.67;0.77;;;27.10;1.00;;;;;;20855766;28;20053;-45
2023/08/21 13:50:45;;;;;;;4.78;2.08;;;27.10;1.00;;;;;;20850472;28;20029;-44
2023/08/21 14:00:46;;;;;;;4.47;1.38;;;27.10;1.00;;;;;;20852853;28;20037;-44
2023/08/21 14:10:46;;;;;;;2.95;0.82;;;27.50;1.00;;;;;;20831229;28;20109;-44
2023/08/21 14:20:47;;;;;;;3.47;1.30;;;27.00;1.00;;;;;;20847551;28;20160;-44
2023/08/21 14:30:48;;;;;;;5.72;1.00;;;27.00;1.00;;;;;;20835741;28;20037;-44
2023/08/21 14:40:49;;;;;;;3.80;1.10;;;26.90;1.00;;;;;;20821195;28;20090;-44
2023/08/21 14:50:49;;;;;;;3.45;0.93;;;27.10;1.00;;;;;;20821882;28;20055;-44
2023/08/21 15:00:53;;;;;;;2.33;0.80;;;26.50;1.00;;;;;;20795436;28;20041;-44
2023/08/21 15:10:54;;;;;;;3.53;0.90;;;26.40;1.00;;;;;;20795857;28;20477;-44
2023/08/21 15:20:55;;;;;;;3.80;0.90;;;26.30;1.00;;;;;;20807368;28;20505;-44
2023/08/21 15:30:55;;;;;;;2.88;1.20;;;26.00;1.00;;;;;;20792916;28;20108;-44
2023/08/21 15:40:56;;;;;;;3.90;1.30;;;26.00;1.00;;;;;;20793992;28;20401;-44
2023/08/21 15:50:57;;;;;;;3.63;1.30;;;25.80;1.00;;;;;;20819374;28;20049;-45
2023/08/21 16:00:58;;;;;;;3.20;1.08;;;25.60;1.00;;;;;;20852039;28;20435;-44
2023/08/21 16:10:58;;;;;;;3.22;1.02;;;25.50;1.00;;;;;;20859020;28;20516;-44
2023/08/21 16:20:59;;;;;;;4.47;1.35;;;25.20;1.00;;;;;;20854008;28;20033;-44
2023/08/21 16:31:01;;;;;;;3.38;1.45;;;25.10;1.00;;;;;;20848099;28;20037;-44
2023/08/21 16:41:01;;;;;;;3.85;1.20;;;24.80;1.00;;;;;;20816343;28;20452;-44
2023/08/21 16:51:02;;;;;;;3.13;1.02;;;24.50;1.00;;;;;;20811464;28;20060;-44
2023/08/21 17:01:02;;;;;;;3.30;1.05;;;24.20;1.00;;;;;;20813428;28;20051;-44
2023/08/21 17:11:03;;;;;;;3.25;1.00;;;24.00;1.00;;;;;;20821153;28;20037;-44
2023/08/21 17:21:04;;;;;;;2.30;0.95;;;23.50;1.00;;;;;;20831145;28;20480;-44
2023/08/21 17:31:04;;;;;;;3.65;1.20;;;23.50;1.00;;;;;;20829049;28;20060;-44
2023/08/21 17:41:07;;;;;;;3.22;1.20;;;23.10;1.00;;;;;;20810819;28;20045;-44
2023/08/21 17:51:08;;;;;;;2.88;1.05;;;23.10;1.00;;;;;;20809113;28;20046;-44
2023/08/21 18:01:09;;;;;;;2.20;0.90;;;22.90;1.00;;;;;;20819572;28;20473;-44
2023/08/21 18:11:09;;;;;;;4.78;1.10;;;22.70;1.00;;;;;;20831517;28;20087;-44
2023/08/21 18:21:10;;;;;;;3.50;1.00;;;22.60;1.00;;;;;;20828725;28;20032;-44
2023/08/21 18:31:10;;;;;;;2.80;1.15;;;22.40;1.00;;;;;;20821841;28;20033;-44
2023/08/21 18:41:11;;;;;;;3.90;1.35;;;22.10;1.00;;;;;;20827766;28;20128;-44
2023/08/21 18:51:12;;;;;;;3.95;1.17;;;21.80;1.00;;;;;;20830510;28;20037;-44
2023/08/21 19:01:12;;;;;;;2.20;0.95;;;21.50;1.00;;;;;;20821034;28;20037;-44
2023/08/21 19:11:13;;;;;;;3.63;1.65;;;21.10;1.00;;;;;;20831618;28;20155;-44
2023/08/21 19:21:13;;;;;;;3.42;1.20;;;20.80;1.00;;;;;;20824749;28;20033;-44
2023/08/21 19:31:14;;;;;;;5.38;1.33;;;20.50;1.00;;;;;;20824939;28;20062;-44
2023/08/21 19:41:15;;;;;;;2.58;1.30;;;20.30;1.00;;;;;;20836342;28;20536;-45
2023/08/21 19:51:15;;;;;;;2.70;1.40;;;20.00;1.00;;;;;;20827836;28;20056;-44
2023/08/21 20:01:16;;;;;;;3.53;1.70;;;19.80;1.00;;;;;;20824037;28;20489;-44
2023/08/21 20:11:16;;;;;;;3.85;1.60;;;19.60;1.00;;;;;;20829978;28;20578;-44
2023/08/21 20:21:19;;;;;;;3.65;1.88;;;19.40;1.00;;;;;;20829273;28;20059;-44
2023/08/21 20:31:19;;;;;;;4.97;2.10;;;19.20;1.00;;;;;;20838801;28;20419;-44
2023/08/21 20:41:20;;;;;;;4.35;1.73;;;19.00;1.00;;;;;;20853887;28;20037;-43
2023/08/21 20:51:21;;;;;;;3.95;1.58;;;18.80;1.00;;;;;;20853371;28;20118;-44
2023/08/21 21:01:21;;;;;;;4.75;1.90;;;18.60;1.00;;;;;;20851783;28;20049;-44
2023/08/21 21:11:22;;;;;;;4.65;2.03;;;18.60;1.00;;;;;;20841340;28;20520;-44
2023/08/21 21:21:22;;;;;;;3.70;1.92;;;18.60;1.00;;;;;;20835878;28;20091;-44
2023/08/21 21:31:23;;;;;;;3.85;2.10;;;18.50;1.00;;;;;;20834622;28;20057;-44
2023/08/21 21:41:23;;;;;;;4.03;1.58;;;18.40;1.00;;;;;;20838189;28;20314;-43
2023/08/21 21:51:24;;;;;;;3.92;1.98;;;18.30;1.00;;;;;;20841080;28;20577;-44
2023/08/21 22:01:24;;;;;;;3.85;2.35;;;18.20;1.00;;;;;;20832372;28;21295;-44
2023/08/21 22:11:25;;;;;;;4.97;2.17;;;18.20;1.00;;;;;;20836349;28;20511;-44
2023/08/21 22:21:26;;;;;;;5.55;2.08;;;18.10;1.00;;;;;;20849131;28;20043;-44
2023/08/21 22:31:26;;;;;;;4.85;2.33;;;18.10;1.00;;;;;;20834871;28;20033;-44
2023/08/21 22:41:27;;;;;;;4.05;2.20;;;18.10;1.00;;;;;;20836968;28;20033;-45
2023/08/21 22:51:27;;;;;;;8.20;2.72;;;18.00;1.00;;;;;;20834068;28;20086;-43
2023/08/21 23:01:28;;;;;;;7.43;3.17;;;18.10;5.60;;;;;;20831755;28;20520;-44
2023/08/21 23:11:29;;;;;;;6.15;2.80;;;18.10;11.40;;;;;;20844316;28;20397;-43
2023/08/21 23:21:31;;;;;;;4.50;2.70;;;18.20;13.80;;;;;;20842418;28;20412;-43
2023/08/21 23:31:33;;;;;;;4.80;2.58;;;18.30;13.60;;;;;;20842306;28;20047;-44
2023/08/21 23:41:34;;;;;;;4.28;2.38;;;18.30;23.80;;;;;;20839129;28;20562;-44
2023/08/21 23:51:34;;;;;;;4.82;2.38;;;18.30;27.30;;;;;;20837124;28;20526;-44
